Time;durP1;ratioP1;P1;durP2;ratioP2;P2;SDS_P1;SDS_P2;PMS_P1;PMS_P2;Temp;Humidity;BMP_temperature;BMP_pressure;BME280_temperature;BME280_humidity;BME280_pressure;Samples;Min_cycle;Max_cycle;Signal;HPM_P1;HPM_P2
2022/11/18 00:00:12;;;;;;;40.40;20.88;;;;;;;8.68;81.39;94178.50;5072512;28;20044;-75
2022/11/18 00:02:38;;;;;;;57.58;21.50;;;;;;;9.07;81.30;94231.09;5068276;28;20124;-75
2022/11/18 00:05:03;;;;;;;40.63;22.85;;;;;;;8.96;81.59;94224.34;5053505;28;20040;-76
2022/11/18 00:07:29;;;;;;;40.65;23.17;;;;;;;8.97;81.97;94225.94;5072394;28;21349;-75
2022/11/18 00:09:54;;;;;;;49.28;22.23;;;;;;;8.91;81.42;94204.06;5062035;28;20059;-75
2022/11/18 00:15:04;;;;;;;39.88;23.30;;;;;;;8.76;81.19;94197.16;5072360;28;20075;-76
2022/11/18 00:17:31;;;;;;;47.63;23.63;;;;;;;8.97;80.48;94226.72;5068036;28;20045;-75
2022/11/18 00:19:56;;;;;;;47.90;25.23;;;;;;;9.07;81.09;94237.19;5070015;28;20064;-76
2022/11/18 00:22:22;;;;;;;43.75;24.23;;;;;;;8.81;81.08;94191.00;5053832;28;20067;-76
2022/11/18 00:24:47;;;;;;;36.70;20.90;;;;;;;8.63;80.83;94176.69;5054156;28;20433;-76
2022/11/18 00:27:12;;;;;;;35.63;21.52;;;;;;;8.22;80.58;94117.50;5070865;28;20041;-76
2022/11/18 00:29:39;;;;;;;35.92;20.83;;;;;;;8.85;80.71;94208.63;5068116;28;20144;-76
2022/11/18 00:32:05;;;;;;;38.53;21.02;;;;;;;8.50;80.67;94161.53;5072052;28;20046;-76
2022/11/18 00:34:30;;;;;;;39.17;22.75;;;;;;;8.36;80.88;94142.97;5078078;28;20059;-76
2022/11/18 00:36:55;;;;;;;38.35;21.75;;;;;;;8.86;80.61;94230.56;5052953;28;20051;-75
2022/11/18 00:39:21;;;;;;;39.17;21.70;;;;;;;8.79;81.03;94215.06;5071979;28;20102;-75
2022/11/18 00:44:31;;;;;;;46.88;23.05;;;;;;;8.02;80.98;94089.50;5067708;28;20600;-75
2022/11/18 00:46:57;;;;;;;37.25;21.05;;;;;;;8.53;81.17;94176.84;5053210;28;20045;-76
2022/11/18 00:49:23;;;;;;;45.13;23.10;;;;;;;8.79;81.10;94227.50;5053732;28;20040;-76
2022/11/18 00:51:49;;;;;;;40.47;22.88;;;;;;;8.70;80.71;94197.47;5070226;28;20474;-75
2022/11/18 00:54:14;;;;;;;44.42;21.42;;;;;;;8.44;81.15;94160.84;5069901;28;20502;-76
2022/11/18 00:56:40;;;;;;;41.75;23.20;;;;;;;8.58;81.11;94181.25;5071029;28;20036;-76
2022/11/18 00:59:06;;;;;;;38.75;21.52;;;;;;;8.70;81.51;94208.84;5071371;28;20040;-75
2022/11/18 01:01:31;;;;;;;46.47;21.90;;;;;;;8.93;80.68;94230.22;5069920;28;20105;-76
2022/11/18 01:03:56;;;;;;;42.72;21.58;;;;;;;8.60;80.45;94190.50;5053034;28;20048;-76
2022/11/18 01:06:22;;;;;;;36.00;20.52;;;;;;;8.26;80.24;94131.72;5051708;28;20098;-76
2022/11/18 01:08:47;;;;;;;34.53;20.95;;;;;;;8.63;80.55;94181.97;5052967;28;20047;-76
2022/11/18 01:13:57;;;;;;;49.38;22.33;;;;;;;8.66;80.50;94205.19;5071500;28;20051;-77
2022/11/18 01:16:25;;;;;;;37.78;20.95;;;;;;;8.72;80.55;94208.56;5052604;28;20048;-76
2022/11/18 01:18:51;;;;;;;42.45;22.85;;;;;;;8.84;80.47;94232.72;5052893;28;20052;-76
2022/11/18 01:21:17;;;;;;;46.90;23.50;;;;;;;8.38;80.50;94161.19;5070550;28;20149;-76
2022/11/18 01:23:43;;;;;;;66.97;34.53;;;;;;;8.77;80.25;94221.72;5070666;28;20515;-77
2022/11/18 01:26:11;;;;;;;58.17;28.70;;;;;;;8.82;80.48;94226.94;5070869;28;20068;-76
2022/11/18 01:28:36;;;;;;;93.30;44.35;;;;;;;8.75;80.19;94226.50;5071219;28;20548;-76
2022/11/18 01:31:07;;;;;;;95.90;44.05;;;;;;;8.77;80.68;94227.00;5052727;28;20115;-77
2022/11/18 01:33:33;;;;;;;83.07;42.97;;;;;;;8.66;80.11;94215.78;5070852;28;20047;-76
2022/11/18 01:35:58;;;;;;;97.65;50.22;;;;;;;8.39;79.88;94186.53;5083526;28;20487;-76
2022/11/18 01:38:24;;;;;;;103.80;55.88;;;;;;;8.70;80.07;94229.97;5067328;28;20037;-76
2022/11/18 01:40:50;;;;;;;131.70;64.32;;;;;;;8.51;79.70;94229.19;5050882;28;20032;-76
2022/11/18 01:43:19;;;;;;;164.65;70.53;;;;;;;8.11;80.78;94180.22;5070675;28;20465;-76
2022/11/18 01:45:47;;;;;;;159.35;72.57;;;;;;;8.32;82.02;94225.69;5051156;28;20511;-76
2022/11/18 01:48:20;;;;;;;152.80;69.65;;;;;;;8.37;81.90;94230.94;5052694;28;20040;-76
2022/11/18 01:50:49;;;;;;;199.85;71.32;;;;;;;8.34;81.78;94229.63;5067690;28;20041;-76
2022/11/18 01:53:21;;;;;;;316.92;76.63;;;;;;;8.23;81.84;94193.03;5070439;28;20095;-76
2022/11/18 01:55:49;;;;;;;351.85;77.32;;;;;;;8.36;81.48;94208.22;5070430;28;20031;-76
2022/11/18 01:58:38;;;;;;;303.20;71.25;;;;;;;8.40;81.89;94235.63;5071211;28;20032;-76
2022/11/18 02:01:05;;;;;;;365.88;74.65;;;;;;;8.30;82.61;94231.25;5050383;28;20048;-77
2022/11/18 02:03:31;;;;;;;351.23;75.68;;;;;;;8.42;82.38;94226.38;5065572;28;20048;-76
2022/11/18 02:05:58;;;;;;;276.45;71.15;;;;;;;8.04;82.36;94164.72;5060304;28;20210;-76
2022/11/18 02:08:24;;;;;;;395.27;78.05;;;;;;;8.14;82.52;94174.38;5057917;28;20047;-77
2022/11/18 02:10:50;;;;;;;387.55;72.88;;;;;;;7.84;83.32;94158.88;5056136;28;20044;-76
2022/11/18 02:13:16;;;;;;;345.90;69.93;;;;;;;7.78;83.34;94118.56;5064299;28;20064;-77
2022/11/18 02:16:01;;;;;;;341.30;67.10;;;;;;;8.11;83.42;94172.28;5054542;28;20032;-76
2022/11/18 02:18:34;;;;;;;284.95;70.22;;;;;;;8.04;82.98;94148.09;5052281;28;20071;-76
2022/11/18 02:21:31;;;;;;;255.00;70.72;;;;;;;8.09;82.52;94156.72;5069870;28;20063;-76
2022/11/18 02:24:05;;;;;;;257.73;68.43;;;;;;;8.00;83.00;94144.44;5069846;28;20047;-76
2022/11/18 02:26:40;;;;;;;406.58;70.45;;;;;;;8.52;82.60;94236.03;5052041;28;20043;-77
2022/11/18 02:29:08;;;;;;;326.85;68.07;;;;;;;8.54;82.52;94233.91;5056317;28;20047;-76
2022/11/18 02:31:47;;;;;;;373.15;67.80;;;;;;;8.33;82.68;94192.94;5056326;28;20044;-76
2022/11/18 02:34:37;;;;;;;241.65;59.53;;;;;;;8.57;83.14;94232.53;5074615;28;20048;-76
2022/11/18 02:37:05;;;;;;;319.30;60.33;;;;;;;8.58;82.71;94224.34;5034401;28;20119;-76
2022/11/18 02:39:35;;;;;;;299.27;59.67;;;;;;;8.39;82.90;94191.81;5074038;28;20917;-76
2022/11/18 02:42:08;;;;;;;268.30;59.40;;;;;;;8.61;83.34;94226.41;5073821;28;20082;-76
2022/11/18 02:44:37;;;;;;;254.00;52.83;;;;;;;8.49;83.07;94210.97;5056253;28;20032;-76
2022/11/18 02:47:06;;;;;;;232.95;53.03;;;;;;;8.08;82.60;94146.47;5074046;28;20072;-76
2022/11/18 02:49:39;;;;;;;191.07;53.03;;;;;;;8.63;82.95;94218.19;5073782;28;20552;-76
2022/11/18 02:52:07;;;;;;;223.88;56.40;;;;;;;8.60;83.32;94221.41;5055679;28;20040;-78
2022/11/18 02:54:36;;;;;;;179.57;53.38;;;;;;;8.55;82.89;94205.59;5072879;28;20511;-78
2022/11/18 02:57:03;;;;;;;189.18;54.22;;;;;;;8.61;83.02;94215.06;5072725;28;20060;-78
2022/11/18 02:59:28;;;;;;;122.57;50.33;;;;;;;8.13;82.73;94151.69;5067364;28;20037;-78
2022/11/18 03:01:54;;;;;;;144.20;48.60;;;;;;;8.44;82.74;94205.75;5073033;28;20040;-78
2022/11/18 03:04:20;;;;;;;209.65;48.30;;;;;;;8.58;82.50;94220.91;5054886;28;20024;-78
2022/11/18 03:07:06;;;;;;;164.60;47.70;;;;;;;8.56;82.36;94231.75;5072818;28;20029;-78
2022/11/18 03:09:43;;;;;;;131.68;46.67;;;;;;;7.80;82.04;94126.19;5072900;28;20037;-78
2022/11/18 03:12:23;;;;;;;139.55;45.28;;;;;;;8.39;82.21;94242.78;5072609;28;20123;-78
2022/11/18 03:15:15;;;;;;;150.50;45.95;;;;;;;8.39;82.32;94228.81;5054879;28;20044;-78
2022/11/18 03:17:48;;;;;;;152.48;45.40;;;;;;;8.44;83.14;94234.03;5001514;28;20507;-78
2022/11/18 03:20:32;;;;;;;136.23;45.85;;;;;;;8.38;83.11;94220.09;5072496;28;20083;-78
2022/11/18 03:23:37;;;;;;;180.15;50.13;;;;;;;7.80;82.57;94126.97;5073049;28;20491;-78
2022/11/18 03:26:11;;;;;;;172.88;47.25;;;;;;;8.29;82.74;94205.91;5027404;28;20113;-78
2022/11/18 03:28:48;;;;;;;157.85;47.03;;;;;;;8.35;83.01;94202.16;5070769;28;20106;-78
2022/11/18 03:31:20;;;;;;;164.75;48.65;;;;;;;8.45;83.15;94217.91;5075704;28;20132;-78
2022/11/18 03:33:56;;;;;;;164.05;48.05;;;;;;;8.35;83.04;94206.66;5054074;28;20036;-78
2022/11/18 03:36:26;;;;;;;134.30;48.65;;;;;;;8.46;83.44;94214.19;5054304;28;20067;-78
2022/11/18 03:38:56;;;;;;;141.07;47.67;;;;;;;8.45;83.21;94214.47;5072130;28;20036;-78
2022/11/18 03:41:25;;;;;;;199.85;50.80;;;;;;;8.06;83.42;94173.16;5053903;28;20036;-78
2022/11/18 03:44:01;;;;;;;185.02;48.60;;;;;;;7.98;83.38;94146.59;5054057;28;20040;-78
2022/11/18 03:47:11;;;;;;;258.27;51.85;;;;;;;8.43;83.64;94217.38;5072269;28;20119;-79
2022/11/18 03:49:48;;;;;;;236.85;50.70;;;;;;;8.50;83.49;94214.38;4963228;28;20193;-78
2022/11/18 03:52:18;;;;;;;172.63;49.35;;;;;;;8.21;83.13;94169.53;4954436;28;20525;-78
2022/11/18 03:54:47;;;;;;;123.43;45.08;;;;;;;8.03;83.62;94136.72;5030107;28;20047;-78
2022/11/18 03:57:26;;;;;;;114.50;44.55;;;;;;;8.47;83.76;94193.81;5053078;28;20441;-78
2022/11/18 03:59:59;;;;;;;177.18;47.75;;;;;;;8.41;83.90;94206.31;5071705;28;20044;-78
2022/11/18 04:02:27;;;;;;;143.68;43.55;;;;;;;8.00;83.81;94134.69;5060751;28;20129;-78
2022/11/18 04:04:56;;;;;;;180.70;45.75;;;;;;;8.51;84.28;94203.53;5064214;28;20035;-78
2022/11/18 04:07:36;;;;;;;158.98;43.38;;;;;;;8.55;83.48;94205.59;5053621;28;20044;-78
2022/11/18 04:10:20;;;;;;;201.60;44.92;;;;;;;8.55;83.66;94198.47;5053567;28;20049;-77
2022/11/18 04:13:05;;;;;;;174.82;41.80;;;;;;;8.50;83.86;94204.59;5071671;28;20067;-78
2022/11/18 04:15:31;;;;;;;145.60;39.72;;;;;;;7.99;83.53;94122.53;5053454;28;20048;-77
2022/11/18 04:17:58;;;;;;;178.90;39.08;;;;;;;8.24;84.19;94184.81;5071880;28;20036;-78
2022/11/18 04:20:24;;;;;;;189.00;42.90;;;;;;;8.42;84.18;94207.88;5053075;28;20106;-78
2022/11/18 04:22:49;;;;;;;193.60;43.58;;;;;;;8.37;83.10;94209.81;5071442;28;20044;-78
2022/11/18 04:25:15;;;;;;;143.98;40.25;;;;;;;8.12;84.01;94169.38;5053166;28;20043;-78
2022/11/18 04:27:40;;;;;;;113.45;38.67;;;;;;;8.44;83.86;94218.16;5071404;28;20051;-78
2022/11/18 04:30:07;;;;;;;114.40;41.58;;;;;;;8.09;84.64;94166.50;5053211;28;20202;-78
2022/11/18 04:32:33;;;;;;;151.88;39.80;;;;;;;8.03;84.43;94149.94;5071004;28;20040;-78
2022/11/18 04:34:58;;;;;;;157.27;43.25;;;;;;;7.97;84.61;94155.56;5071368;28;20125;-78
2022/11/18 04:37:24;;;;;;;195.77;48.72;;;;;;;8.13;84.08;94167.53;5036008;28;20040;-78
2022/11/18 04:39:50;;;;;;;197.02;46.92;;;;;;;8.13;84.73;94184.16;5070681;28;20044;-78
2022/11/18 04:42:15;;;;;;;202.07;49.60;;;;;;;8.33;84.50;94220.13;5070265;28;20048;-78
2022/11/18 04:44:41;;;;;;;219.45;49.95;;;;;;;8.02;84.12;94189.81;5065151;28;20188;-78
2022/11/18 04:47:06;;;;;;;279.83;50.17;;;;;;;8.45;84.89;94239.03;5068784;28;20044;-78
2022/11/18 04:49:33;;;;;;;218.75;46.70;;;;;;;8.12;84.46;94169.38;5064159;28;20115;-78
2022/11/18 04:52:00;;;;;;;222.45;46.60;;;;;;;8.56;84.29;94233.59;5070698;28;20509;-78
2022/11/18 04:54:26;;;;;;;215.98;40.55;;;;;;;8.46;84.75;94211.53;5070998;28;20499;-78
2022/11/18 04:56:53;;;;;;;255.75;43.40;;;;;;;8.31;84.13;94211.72;5070291;28;20070;-78
2022/11/18 04:59:22;;;;;;;207.95;39.22;;;;;;;8.52;84.24;94231.53;5070112;28;20098;-77
2022/11/18 05:01:48;;;;;;;226.38;31.27;;;;;;;8.46;83.89;94230.03;5070037;28;20048;-78
2022/11/18 05:04:16;;;;;;;144.10;25.25;;;;;;;7.97;84.62;94169.56;5070407;28;20048;-80
2022/11/18 05:06:41;;;;;;;193.43;26.48;;;;;;;8.42;84.65;94217.66;5070172;28;20041;-77
2022/11/18 05:09:07;;;;;;;167.00;24.08;;;;;;;8.36;84.36;94224.88;5061447;28;20051;-78
2022/11/18 05:14:17;;;;;;;187.88;27.98;;;;;;;8.12;84.75;94181.78;5057097;28;20101;-78
2022/11/18 05:16:43;;;;;;;140.82;27.30;;;;;;;7.94;84.47;94148.19;5033911;28;20510;-77
2022/11/18 05:19:10;;;;;;;137.68;26.65;;;;;;;8.48;85.00;94233.16;5057863;28;20044;-78
2022/11/18 05:21:36;;;;;;;206.70;27.90;;;;;;;8.13;84.52;94172.81;5057568;28;20502;-78
2022/11/18 05:24:03;;;;;;;202.98;29.30;;;;;;;8.55;84.01;94237.31;5053016;28;20045;-78
2022/11/18 05:26:28;;;;;;;143.05;27.30;;;;;;;8.42;84.35;94231.66;5045528;28;20135;-77
2022/11/18 05:28:54;;;;;;;149.25;28.52;;;;;;;8.26;83.87;94197.75;5036303;28;20051;-78
2022/11/18 05:31:19;;;;;;;177.52;30.08;;;;;;;8.12;85.17;94182.59;5052336;28;20032;-78
2022/11/18 05:33:45;;;;;;;96.90;28.48;;;;;;;8.53;84.53;94242.91;5033212;28;20503;-78
2022/11/18 05:36:13;;;;;;;174.30;33.60;;;;;;;7.63;84.85;94089.69;5047845;28;20040;-78
2022/11/18 05:38:39;;;;;;;212.48;36.35;;;;;;;8.61;84.75;94241.50;5061579;28;20109;-78
2022/11/18 05:41:06;;;;;;;170.98;31.75;;;;;;;7.82;85.10;94111.66;5043973;28;20489;-78
2022/11/18 05:43:34;;;;;;;229.43;30.10;;;;;;;8.66;84.72;94239.56;5062242;28;20147;-78
2022/11/18 05:46:00;;;;;;;218.30;29.50;;;;;;;8.31;84.31;94197.72;5051595;28;20040;-78
2022/11/18 05:48:26;;;;;;;123.53;29.98;;;;;;;8.47;84.49;94218.38;5065702;28;20042;-78
2022/11/18 05:50:53;;;;;;;201.65;30.30;;;;;;;8.20;84.49;94183.81;5036463;28;20063;-82
2022/11/18 05:53:21;;;;;;;140.13;30.10;;;;;;;8.65;84.99;94245.13;5051398;28;20028;-80
2022/11/18 05:55:52;;;;;;;131.15;29.88;;;;;;;8.59;85.18;94233.06;5059881;28;20374;-79
2022/11/18 05:58:17;;;;;;;166.88;26.77;;;;;;;8.59;85.41;94238.34;5040800;28;20531;-79
2022/11/18 06:00:46;;;;;;;199.52;24.30;;;;;;;8.13;85.89;94162.25;5062970;28;20097;-79
2022/11/18 06:03:22;;;;;;;268.08;22.60;;;;;;;8.59;85.35;94239.13;5060073;28;20035;-79
2022/11/18 06:05:48;;;;;;;201.05;23.33;;;;;;;8.31;85.66;94180.03;5053809;28;20068;-79
2022/11/18 06:08:17;;;;;;;165.32;21.90;;;;;;;8.55;87.24;94235.47;5059593;28;20472;-78
2022/11/18 06:10:44;;;;;;;154.55;23.10;;;;;;;8.21;86.61;94166.91;5071505;28;20398;-79
2022/11/18 06:13:16;;;;;;;150.23;20.83;;;;;;;8.24;87.22;94178.78;5052448;28;20105;-79
2022/11/18 06:15:43;;;;;;;192.70;20.33;;;;;;;8.74;86.87;94241.56;5023348;28;20029;-78
2022/11/18 06:18:25;;;;;;;223.35;23.83;;;;;;;8.41;86.72;94185.16;5046748;28;20632;-78
2022/11/18 06:20:58;;;;;;;144.63;20.17;;;;;;;8.11;86.37;94151.16;5049090;28;20067;-79
2022/11/18 06:23:25;;;;;;;184.63;23.25;;;;;;;8.47;86.62;94188.53;5048001;28;20399;-78
2022/11/18 06:25:51;;;;;;;182.32;22.42;;;;;;;8.88;86.79;94231.88;5054341;28;20044;-80
2022/11/18 06:28:17;;;;;;;246.60;20.42;;;;;;;8.21;86.28;94137.06;5063786;28;20052;-79
2022/11/18 06:30:42;;;;;;;274.75;21.98;;;;;;;8.54;86.37;94170.50;5049001;28;20044;-80
2022/11/18 06:33:08;;;;;;;220.68;19.63;;;;;;;8.26;86.56;94126.41;5033773;28;20438;-78
2022/11/18 06:35:34;;;;;;;224.68;18.15;;;;;;;8.77;85.70;94197.94;5053445;28;20044;-81
2022/11/18 06:37:59;;;;;;;189.95;19.88;;;;;;;8.83;86.37;94220.59;5059688;28;20044;-80
2022/11/18 06:40:25;;;;;;;182.88;21.83;;;;;;;8.21;85.93;94108.00;5053268;28;20040;-80
2022/11/18 06:45:34;;;;;;;273.40;20.80;;;;;;;8.77;85.94;94214.56;5069018;28;20097;-79
2022/11/18 06:47:59;;;;;;;300.20;23.17;;;;;;;8.04;86.22;94082.06;5047355;28;20139;-78
2022/11/18 06:50:26;;;;;;;260.95;20.10;;;;;;;7.53;86.84;94029.91;5049198;28;20189;-80
2022/11/18 06:52:52;;;;;;;299.95;20.83;;;;;;;8.75;86.78;94186.84;5044728;28;20044;-78
2022/11/18 06:55:17;;;;;;;230.75;20.70;;;;;;;8.97;87.06;94237.31;5038328;28;20629;-81
2022/11/18 06:57:44;;;;;;;236.48;19.90;;;;;;;9.02;86.23;94237.22;5057071;28;20055;-82
2022/11/18 07:00:10;;;;;;;218.43;20.17;;;;;;;8.70;86.30;94182.41;5034758;28;20032;-80
2022/11/18 07:02:36;;;;;;;156.48;20.13;;;;;;;9.09;86.09;94221.78;5043221;28;20052;-81
2022/11/18 07:05:02;;;;;;;186.10;22.50;;;;;;;9.17;85.64;94218.50;5033840;28;20040;-79
2022/11/18 07:07:27;;;;;;;199.00;21.58;;;;;;;9.01;86.09;94219.00;5030328;28;20521;-79
2022/11/18 07:09:53;;;;;;;170.43;20.13;;;;;;;9.10;85.63;94207.50;5035222;28;20040;-79
2022/11/18 07:12:18;;;;;;;172.85;21.70;;;;;;;9.04;85.88;94208.63;5008426;28;20768;-78
2022/11/18 07:14:44;;;;;;;203.63;23.00;;;;;;;8.60;86.49;94121.00;5050048;28;20044;-79
2022/11/18 07:17:09;;;;;;;205.93;25.88;;;;;;;9.17;85.80;94205.25;5041978;28;20028;-82
2022/11/18 07:19:35;;;;;;;174.80;22.55;;;;;;;8.81;87.16;94167.19;5050300;28;20067;-81
2022/11/18 07:22:00;;;;;;;143.07;23.60;;;;;;;9.26;86.56;94202.75;5058645;28;20101;-79
2022/11/18 07:24:25;;;;;;;143.70;22.23;;;;;;;8.86;86.31;94128.25;5061578;28;20040;-78
2022/11/18 07:26:54;;;;;;;93.32;21.23;;;;;;;9.13;86.09;94151.38;5041378;28;20044;-78
2022/11/18 07:29:19;;;;;;;145.48;27.13;;;;;;;8.29;86.63;94026.28;5043024;28;20048;-78
2022/11/18 07:31:45;;;;;;;99.72;23.90;;;;;;;9.38;86.80;94184.59;5047116;28;20056;-78
2022/11/18 07:34:11;;;;;;;202.45;24.40;;;;;;;9.44;86.54;94182.63;5048681;28;20044;-78
2022/11/18 07:36:37;;;;;;;121.88;24.75;;;;;;;8.97;86.78;94120.94;5043103;28;20806;-78
2022/11/18 07:39:05;;;;;;;138.85;25.15;;;;;;;9.57;86.82;94209.13;5038897;28;20053;-78
2022/11/18 07:41:31;;;;;;;133.10;25.00;;;;;;;9.55;87.18;94195.41;5066721;28;20520;-77
2022/11/18 07:43:59;;;;;;;140.30;25.45;;;;;;;9.46;88.04;94169.91;5025468;28;20052;-78
2022/11/18 07:46:28;;;;;;;131.43;26.42;;;;;;;8.67;86.42;94064.06;5050677;28;20649;-78
2022/11/18 07:48:55;;;;;;;101.22;25.45;;;;;;;9.11;87.22;94118.34;5056599;28;20045;-78
2022/11/18 07:51:25;;;;;;;117.20;30.60;;;;;;;9.48;88.22;94184.41;5055555;28;20055;-79
2022/11/18 07:53:51;;;;;;;107.80;29.45;;;;;;;9.71;87.52;94203.09;5033998;28;20036;-80
2022/11/18 07:56:18;;;;;;;126.60;28.27;;;;;;;9.80;87.91;94206.63;5058759;28;20041;-80
2022/11/18 07:58:44;;;;;;;96.28;30.58;;;;;;;9.85;86.39;94191.44;5041567;28;20646;-81
2022/11/18 08:01:13;;;;;;;138.43;31.85;;;;;;;9.65;86.50;94202.38;5028860;28;20045;-79
2022/11/18 08:03:40;;;;;;;125.47;35.03;;;;;;;9.03;86.48;94103.94;5034772;28;20046;-79
2022/11/18 08:06:08;;;;;;;135.85;35.35;;;;;;;9.24;85.23;94149.34;5041192;28;20044;-80
2022/11/18 08:08:37;;;;;;;94.75;32.80;;;;;;;9.41;85.18;94162.03;5033572;28;20580;-79
2022/11/18 08:11:10;;;;;;;105.32;34.78;;;;;;;9.23;85.13;94132.69;5042041;28;20078;-78
2022/11/18 08:13:36;;;;;;;127.65;33.38;;;;;;;9.20;84.68;94145.72;5030633;28;20209;-78
2022/11/18 08:16:02;;;;;;;95.07;34.10;;;;;;;9.96;85.38;94242.38;5041734;28;20751;-78
2022/11/18 08:18:29;;;;;;;121.60;38.55;;;;;;;9.38;85.23;94170.56;5058008;28;20494;-79
2022/11/18 08:20:55;;;;;;;138.15;36.45;;;;;;;9.21;85.28;94153.38;5063140;28;20040;-80
2022/11/18 08:23:20;;;;;;;125.00;35.13;;;;;;;9.99;84.42;94220.63;5034357;28;20056;-78
2022/11/18 08:25:46;;;;;;;107.85;34.72;;;;;;;10.02;84.71;94217.34;5060188;28;20133;-79
2022/11/18 08:28:13;;;;;;;117.35;35.42;;;;;;;9.94;84.79;94208.22;5068752;28;20048;-80
2022/11/18 08:30:39;;;;;;;91.50;33.85;;;;;;;9.25;85.11;94080.28;5056034;28;20044;-79
2022/11/18 08:33:04;;;;;;;110.10;36.10;;;;;;;9.92;85.32;94180.44;5045070;28;20753;-78
2022/11/18 08:35:31;;;;;;;137.32;37.40;;;;;;;10.19;84.47;94214.16;5058711;28;20043;-79
2022/11/18 08:37:58;;;;;;;100.43;34.47;;;;;;;10.11;84.43;94196.28;5059700;28;20033;-79
2022/11/18 08:40:23;;;;;;;116.35;37.58;;;;;;;9.37;85.61;94098.34;5048011;28;20451;-79
2022/11/18 08:42:49;;;;;;;105.50;37.72;;;;;;;10.00;85.09;94150.63;5057406;28;20037;-80
2022/11/18 08:45:14;;;;;;;97.18;38.53;;;;;;;10.07;84.71;94122.69;5064477;28;20185;-78
2022/11/18 08:47:40;;;;;;;90.40;35.60;;;;;;;10.00;85.10;94110.91;5028861;28;20037;-79
2022/11/18 08:50:10;;;;;;;89.18;34.88;;;;;;;10.18;85.29;94117.22;5064391;28;20032;-78
2022/11/18 08:52:35;;;;;;;93.40;32.70;;;;;;;10.54;85.08;94172.91;5029101;28;20648;-79
2022/11/18 08:55:01;;;;;;;83.85;34.53;;;;;;;9.95;84.42;94060.69;5049710;28;20094;-80
2022/11/18 08:57:27;;;;;;;88.80;32.80;;;;;;;9.57;84.61;94010.63;5030566;28;20056;-80
2022/11/18 08:59:52;;;;;;;79.88;33.22;;;;;;;10.11;84.13;94074.41;5055744;28;20429;-80
2022/11/18 09:02:21;;;;;;;91.78;33.78;;;;;;;10.45;83.91;94117.19;5046400;28;20542;-79
2022/11/18 09:04:48;;;;;;;77.82;33.75;;;;;;;10.53;83.49;94129.72;5054612;28;20040;-79
2022/11/18 09:07:13;;;;;;;73.95;32.50;;;;;;;10.05;83.26;94047.25;5039535;28;20036;-83
2022/11/18 09:09:39;;;;;;;73.55;31.63;;;;;;;10.01;83.43;94035.66;5046422;28;20040;-79
2022/11/18 09:12:04;;;;;;;86.15;33.92;;;;;;;10.00;83.40;94026.16;5035070;28;20044;-80
2022/11/18 09:14:30;;;;;;;77.82;32.92;;;;;;;10.31;83.72;94095.22;5032383;28;20044;-80
2022/11/18 09:16:56;;;;;;;87.47;34.85;;;;;;;10.31;83.08;94100.50;5053119;28;20032;-79
2022/11/18 09:19:21;;;;;;;93.95;39.30;;;;;;;10.14;84.11;94102.97;5074368;28;20052;-79
2022/11/18 09:21:47;;;;;;;103.30;41.35;;;;;;;9.29;84.43;93985.25;5065709;28;20127;-79
2022/11/18 09:24:12;;;;;;;121.13;42.50;;;;;;;9.37;84.83;94012.88;5047514;28;20052;-79
2022/11/18 09:26:38;;;;;;;103.72;44.20;;;;;;;10.02;85.57;94108.75;5065415;28;20225;-80
2022/11/18 09:29:04;;;;;;;120.32;45.70;;;;;;;9.90;85.33;94109.25;5060712;28;20052;-79
2022/11/18 09:31:29;;;;;;;118.47;46.00;;;;;;;9.68;84.85;94072.88;5053385;28;20131;-81
2022/11/18 09:33:57;;;;;;;122.97;49.92;;;;;;;9.89;86.67;94117.50;5059680;28;20051;-81
2022/11/18 09:36:24;;;;;;;134.27;47.83;;;;;;;9.80;85.87;94101.50;5054464;28;20510;-81
2022/11/18 09:38:50;;;;;;;128.80;48.70;;;;;;;9.77;86.61;94085.41;5064812;28;20058;-81
2022/11/18 09:41:40;;;;;;;139.82;48.65;;;;;;;9.80;86.21;94098.84;5036876;28;20033;-79
2022/11/18 09:44:33;;;;;;;123.22;47.72;;;;;;;9.88;85.87;94082.28;5030099;28;20059;-79
2022/11/18 09:47:08;;;;;;;130.93;47.28;;;;;;;9.80;86.14;94075.03;5042959;28;20078;-79
2022/11/18 09:49:40;;;;;;;131.27;48.80;;;;;;;9.24;85.79;93972.09;5033306;28;20166;-79
2022/11/18 09:52:16;;;;;;;119.50;47.15;;;;;;;9.90;86.61;94048.34;5053205;28;20102;-78
2022/11/18 09:54:42;;;;;;;152.45;52.63;;;;;;;9.25;87.15;93958.56;5057081;28;20070;-79
2022/11/18 09:57:13;;;;;;;145.75;52.72;;;;;;;10.07;86.94;94048.50;5049056;28;20510;-77
2022/11/18 09:59:39;;;;;;;128.00;51.15;;;;;;;9.84;86.79;93988.59;5041503;28;20056;-79
2022/11/18 10:02:32;;;;;;;136.88;51.83;;;;;;;10.24;85.87;94047.13;5048699;28;20509;-78
2022/11/18 10:05:14;;;;;;;132.15;51.08;;;;;;;9.90;85.77;93970.78;5033057;28;20044;-79
2022/11/18 10:08:03;;;;;;;154.25;57.90;;;;;;;10.28;85.31;94038.31;5035624;28;20040;-80
2022/11/18 10:11:13;;;;;;;142.27;54.50;;;;;;;10.21;85.85;94023.91;5045296;28;20075;-79
2022/11/18 10:13:50;;;;;;;123.70;51.25;;;;;;;10.51;85.39;94033.81;5023497;28;20048;-80
2022/11/18 10:16:16;;;;;;;144.95;57.05;;;;;;;10.69;85.36;94042.66;5054416;28;20049;-79
2022/11/18 10:18:52;;;;;;;133.35;52.88;;;;;;;10.87;84.04;94057.63;5058941;28;20062;-79
2022/11/18 10:21:30;;;;;;;139.18;54.38;;;;;;;10.89;85.44;93977.75;5056045;28;20131;-79
2022/11/18 10:24:06;;;;;;;136.75;54.60;;;;;;;11.75;84.78;94020.63;5064002;28;20075;-77
2022/11/18 10:26:37;;;;;;;116.38;50.83;;;;;;;11.83;83.41;93934.84;5066361;28;20499;-80
2022/11/18 10:29:08;;;;;;;119.78;50.88;;;;;;;12.76;81.65;94001.63;5063401;28;20048;-79
2022/11/18 10:31:36;;;;;;;106.72;45.92;;;;;;;13.08;79.84;94006.44;5047297;28;20576;-81
2022/11/18 10:34:02;;;;;;;107.10;47.55;;;;;;;12.98;79.41;93920.81;5035160;28;20050;-81
2022/11/18 10:36:31;;;;;;;105.82;45.45;;;;;;;13.97;76.90;93998.56;5025628;28;20039;-82
2022/11/18 10:39:15;;;;;;;84.32;41.92;;;;;;;14.11;75.72;93991.88;5065335;28;20040;-79
2022/11/18 10:41:59;;;;;;;94.57;45.30;;;;;;;14.26;75.06;93987.88;5057271;28;20033;-81
2022/11/18 10:44:26;;;;;;;97.95;44.67;;;;;;;14.20;72.86;93994.50;5043940;28;20671;-81
2022/11/18 10:46:52;;;;;;;97.45;47.55;;;;;;;13.88;72.38;93977.31;5047873;28;20047;-82
2022/11/18 10:49:17;;;;;;;93.97;45.65;;;;;;;13.62;70.24;93976.66;5068510;28;20081;-80
2022/11/18 10:52:02;;;;;;;95.45;43.42;;;;;;;13.62;71.93;93974.78;5074248;28;20246;-81
2022/11/18 10:54:28;;;;;;;87.63;40.70;;;;;;;13.74;71.01;93945.56;5046090;28;20043;-80
2022/11/18 10:57:02;;;;;;;89.43;43.92;;;;;;;14.03;70.63;93966.09;5038511;28;20032;-83
2022/11/18 10:59:30;;;;;;;83.57;40.15;;;;;;;13.89;70.67;93971.63;5068885;28;20592;-82
2022/11/18 11:02:19;;;;;;;88.32;43.20;;;;;;;13.77;71.34;93962.78;5052200;28;20079;-80
2022/11/18 11:04:49;;;;;;;93.40;42.50;;;;;;;13.22;70.66;93873.16;5065752;28;20044;-80
2022/11/18 11:07:27;;;;;;;95.53;44.63;;;;;;;13.64;71.06;93959.25;5051022;28;20074;-79
2022/11/18 11:10:14;;;;;;;96.97;45.05;;;;;;;13.54;72.08;93962.28;5045287;28;20036;-80
2022/11/18 11:12:47;;;;;;;82.70;43.67;;;;;;;12.73;72.06;93869.25;5059901;28;20091;-79
2022/11/18 11:15:18;;;;;;;105.63;47.17;;;;;;;13.37;72.75;93947.16;5062335;28;20088;-77
2022/11/18 11:20:41;;;;;;;86.00;39.65;;;;;;;13.18;72.88;93952.09;5038963;28;20152;-80
2022/11/18 11:23:11;;;;;;;83.00;39.30;;;;;;;13.34;73.04;93947.81;5054846;28;20813;-79
2022/11/18 11:25:49;;;;;;;66.85;32.55;;;;;;;13.00;73.19;93923.94;5050298;28;20532;-79
2022/11/18 11:28:37;;;;;;;65.03;32.90;;;;;;;13.30;73.51;93935.44;5043623;28;20147;-80
2022/11/18 11:31:30;;;;;;;66.63;32.55;;;;;;;13.45;75.16;93927.69;5030109;28;20110;-80
2022/11/18 11:34:19;;;;;;;62.28;31.45;;;;;;;13.61;73.02;93945.78;5024328;28;20064;-78
2022/11/18 11:37:02;;;;;;;67.25;32.35;;;;;;;13.37;73.25;93920.53;5037495;28;20446;-78
2022/11/18 11:39:41;;;;;;;72.97;33.35;;;;;;;13.39;73.95;93909.56;5047163;28;20044;-79
2022/11/18 11:42:28;;;;;;;69.78;34.55;;;;;;;13.56;74.15;93904.16;5036125;28;20110;-78
2022/11/18 11:45:06;;;;;;;60.92;29.27;;;;;;;13.62;72.50;93928.72;5039524;28;20731;-78